createdAt,value
2023-03-17T00:01:54.207Z,56.12
2023-03-17T00:04:24.060Z,56.92
2023-03-17T00:06:51.731Z,57.32
2023-03-17T00:09:19.427Z,56.47
2023-03-17T00:11:46.934Z,56.35
2023-03-17T00:14:14.278Z,56.36
2023-03-17T00:16:43.782Z,57.25
2023-03-17T00:19:18.301Z,57.13
2023-03-17T00:21:46.998Z,57.02
2023-03-17T00:24:15.201Z,57.04
2023-03-17T00:26:42.578Z,56.87
2023-03-17T00:29:09.906Z,57.06
2023-03-17T00:31:37.043Z,58.00
2023-03-17T00:34:03.796Z,58.05
2023-03-17T00:36:31.887Z,57.48
2023-03-17T00:38:59.316Z,57.91
2023-03-17T00:41:27.148Z,58.43
2023-03-17T00:43:54.126Z,57.15
2023-03-17T00:46:35.985Z,58.63
2023-03-17T00:49:15.614Z,58.41
2023-03-17T00:51:43.872Z,58.68
2023-03-17T00:54:11.519Z,57.26
2023-03-17T00:56:39.490Z,57.34
2023-03-17T00:59:14.384Z,59.30
2023-03-17T01:01:41.879Z,58.10
2023-03-17T01:04:10.693Z,58.09
2023-03-17T01:06:37.992Z,57.97
2023-03-17T01:09:05.121Z,57.99
2023-03-17T01:11:32.827Z,57.80
2023-03-17T01:13:59.549Z,57.25
2023-03-17T01:16:26.966Z,58.69
2023-03-17T01:18:53.873Z,58.43
2023-03-17T01:21:20.602Z,57.77
2023-03-17T01:23:47.373Z,58.35
2023-03-17T01:26:14.056Z,59.12
2023-03-17T01:28:40.841Z,58.68
2023-03-17T01:31:07.539Z,58.24
2023-03-17T01:33:35.141Z,58.55
2023-03-17T01:36:02.340Z,58.86
2023-03-17T01:38:29.712Z,59.58
2023-03-17T01:40:56.752Z,59.04
2023-03-17T01:43:29.465Z,58.89
2023-03-17T01:46:15.018Z,60.44
2023-03-17T01:48:44.641Z,59.99
2023-03-17T01:51:14.970Z,60.77
2023-03-17T01:53:41.993Z,60.28
2023-03-17T01:56:09.579Z,59.89
2023-03-17T01:58:36.445Z,59.61
2023-03-17T02:01:03.266Z,60.19
2023-03-17T02:03:29.980Z,63.24
2023-03-17T02:05:57.883Z,61.89
2023-03-17T02:08:24.691Z,61.18
2023-03-17T02:10:52.426Z,60.80
2023-03-17T02:13:19.369Z,61.48
2023-03-17T02:15:48.532Z,60.76
2023-03-17T02:18:17.691Z,60.89
2023-03-17T02:20:44.622Z,60.86
2023-03-17T02:23:11.817Z,60.91
2023-03-17T02:25:39.866Z,60.29
2023-03-17T02:28:10.812Z,60.04
2023-03-17T02:30:37.653Z,61.13
2023-03-17T02:33:04.432Z,62.67
2023-03-17T02:35:31.490Z,62.53
2023-03-17T02:37:58.308Z,62.71
2023-03-17T02:40:25.038Z,62.82
2023-03-17T02:42:51.968Z,62.49
2023-03-17T02:45:18.711Z,62.41
2023-03-17T02:47:45.946Z,62.50
2023-03-17T02:50:18.891Z,62.47
2023-03-17T02:52:45.618Z,62.66
2023-03-17T02:55:12.295Z,63.34
2023-03-17T02:57:39.017Z,63.10
2023-03-17T03:00:06.373Z,62.64
2023-03-17T03:02:33.351Z,61.73
2023-03-17T03:05:00.049Z,61.85
2023-03-17T03:07:26.860Z,64.05
2023-03-17T03:09:53.516Z,63.40
2023-03-17T03:12:20.431Z,62.78
2023-03-17T03:14:47.671Z,63.01
2023-03-17T03:17:15.324Z,62.85
2023-03-17T03:19:42.270Z,63.19
2023-03-17T03:22:09.102Z,63.13
2023-03-17T03:24:36.245Z,63.65
2023-03-17T03:27:03.090Z,64.10
2023-03-17T03:29:29.966Z,64.01
2023-03-17T03:31:56.626Z,63.69
2023-03-17T03:34:23.342Z,63.32
2023-03-17T03:36:50.043Z,63.40
2023-03-17T03:39:16.789Z,63.26
2023-03-17T03:41:43.551Z,62.92
2023-03-17T03:44:10.591Z,64.01
2023-03-17T03:46:37.353Z,63.62
2023-03-17T03:49:04.064Z,63.22
2023-03-17T03:51:30.984Z,62.77
2023-03-17T03:53:57.722Z,62.62
2023-03-17T03:56:24.589Z,64.07
2023-03-17T03:58:51.514Z,64.44
2023-03-17T04:01:18.626Z,64.08
2023-03-17T04:03:47.360Z,63.16
2023-03-17T04:06:14.425Z,64.15
2023-03-17T04:08:41.089Z,64.33
2023-03-17T04:11:08.729Z,63.23
2023-03-17T04:13:35.984Z,63.40
2023-03-17T04:16:03.348Z,63.62
2023-03-17T04:18:31.659Z,63.32
2023-03-17T04:20:58.512Z,63.52
2023-03-17T04:23:25.345Z,64.10
2023-03-17T04:25:52.817Z,63.97
2023-03-17T04:28:20.499Z,63.27
2023-03-17T04:30:47.236Z,63.61
2023-03-17T04:33:14.087Z,64.36
2023-03-17T04:35:41.532Z,64.58
2023-03-17T04:38:09.618Z,64.10
2023-03-17T04:40:36.330Z,64.39
2023-03-17T04:43:03.616Z,64.80
2023-03-17T04:45:30.644Z,65.35
2023-03-17T04:47:57.363Z,65.17
2023-03-17T04:50:24.102Z,64.48
2023-03-17T04:52:50.879Z,64.63
2023-03-17T04:55:17.610Z,64.88
2023-03-17T04:57:44.763Z,64.87
2023-03-17T05:00:12.764Z,65.67
2023-03-17T05:02:39.560Z,65.74
2023-03-17T05:05:06.403Z,65.44
2023-03-17T05:07:34.215Z,65.33
2023-03-17T05:10:02.094Z,65.37
2023-03-17T05:12:28.940Z,65.36
2023-03-17T05:14:55.739Z,65.93
2023-03-17T05:17:22.497Z,66.10
2023-03-17T05:19:49.214Z,66.23
2023-03-17T05:22:16.250Z,65.78
2023-03-17T05:24:43.068Z,66.06
2023-03-17T05:27:09.861Z,65.67
2023-03-17T05:29:36.607Z,65.75
2023-03-17T05:32:03.518Z,65.23
2023-03-17T05:34:31.256Z,65.01
2023-03-17T05:36:57.960Z,65.03
2023-03-17T05:39:24.716Z,65.27
2023-03-17T05:41:51.583Z,65.24
2023-03-17T05:44:18.310Z,64.78
2023-03-17T05:46:45.031Z,64.16
2023-03-17T05:49:12.705Z,63.39
2023-03-17T05:51:39.434Z,64.46
2023-03-17T05:54:06.167Z,63.67
2023-03-17T05:56:33.475Z,63.51
2023-03-17T05:59:01.689Z,63.05
2023-03-17T06:01:28.939Z,62.39
2023-03-17T06:03:55.795Z,62.13
2023-03-17T06:06:24.548Z,61.69
2023-03-17T06:08:51.706Z,60.90
2023-03-17T06:11:20.682Z,60.32
2023-03-17T06:13:47.811Z,59.09
2023-03-17T06:16:14.599Z,58.17
2023-03-17T06:18:41.501Z,57.55
2023-03-17T06:21:08.225Z,55.51
2023-03-17T06:23:34.961Z,52.47
2023-03-17T06:26:01.678Z,52.34
2023-03-17T06:28:28.405Z,52.25
2023-03-17T06:30:55.156Z,51.37
2023-03-17T06:33:21.920Z,51.13
2023-03-17T06:35:48.720Z,50.98
2023-03-17T06:38:15.507Z,50.46
2023-03-17T06:40:42.349Z,52.05
2023-03-17T06:43:09.474Z,52.65
2023-03-17T06:45:36.350Z,51.28
2023-03-17T06:48:03.626Z,50.11
2023-03-17T06:50:34.230Z,49.40
2023-03-17T06:53:01.920Z,49.49
2023-03-17T06:55:29.528Z,47.82
2023-03-17T06:57:58.952Z,47.17
2023-03-17T07:00:26.187Z,44.84
2023-03-17T07:02:53.062Z,43.89
2023-03-17T07:05:23.502Z,41.49
2023-03-17T07:07:50.713Z,40.38
2023-03-17T07:10:18.066Z,40.96
2023-03-17T07:12:45.465Z,39.13
2023-03-17T07:15:12.906Z,39.77
2023-03-17T07:17:39.707Z,39.49
2023-03-17T07:20:06.863Z,38.95
2023-03-17T07:22:33.733Z,41.27
2023-03-17T07:25:00.685Z,38.86
2023-03-17T07:27:27.570Z,36.58
2023-03-17T07:29:54.327Z,35.54
2023-03-17T07:32:21.184Z,35.30
2023-03-17T07:34:47.982Z,35.69
2023-03-17T07:37:15.316Z,35.09
2023-03-17T07:39:42.609Z,35.36
2023-03-17T07:42:12.187Z,36.01
2023-03-17T07:44:41.503Z,35.44
2023-03-17T07:47:09.060Z,35.60
2023-03-17T07:49:41.706Z,34.53
2023-03-17T07:52:10.375Z,33.90
2023-03-17T07:54:37.651Z,33.08
2023-03-17T07:57:05.557Z,33.44
2023-03-17T07:59:32.754Z,33.76
2023-03-17T08:02:01.351Z,32.96
2023-03-17T08:04:28.532Z,32.39
2023-03-17T08:06:55.570Z,32.25
2023-03-17T08:09:22.362Z,31.64
2023-03-17T08:11:49.651Z,31.58
2023-03-17T08:14:16.430Z,31.15
2023-03-17T08:27:52.984Z,29.89
2023-03-17T08:30:20.796Z,29.65
2023-03-17T08:32:48.196Z,28.43
2023-03-17T08:35:16.079Z,28.31
2023-03-17T08:37:47.580Z,28.29
2023-03-17T08:40:17.211Z,27.51
2023-03-17T08:42:48.601Z,27.69
2023-03-17T08:45:18.408Z,26.98
2023-03-17T08:47:46.823Z,26.83
2023-03-17T08:50:19.947Z,26.38
2023-03-17T08:52:48.666Z,25.98
2023-03-17T08:55:16.620Z,25.85
2023-03-17T08:57:44.788Z,25.59
2023-03-17T09:00:16.121Z,25.76
2023-03-17T09:02:43.561Z,25.00
2023-03-17T09:05:13.766Z,24.40
2023-03-17T09:07:41.811Z,24.26
2023-03-17T09:10:10.936Z,23.97
2023-03-17T09:12:38.286Z,24.23
2023-03-17T09:15:05.973Z,23.68
2023-03-17T09:17:34.649Z,23.37
2023-03-17T09:20:01.477Z,22.91
2023-03-17T09:22:30.879Z,22.95
2023-03-17T09:24:58.157Z,23.08
2023-03-17T09:27:24.976Z,22.80
2023-03-17T09:29:51.915Z,22.12
2023-03-17T09:32:18.842Z,21.35
2023-03-17T09:34:46.305Z,21.37
2023-03-17T09:37:13.623Z,20.07
2023-03-17T09:39:41.411Z,20.01
2023-03-17T09:42:16.805Z,20.02
2023-03-17T09:45:05.451Z,19.41
2023-03-17T09:47:48.075Z,19.07
2023-03-17T09:50:39.602Z,19.50
2023-03-17T09:53:15.810Z,19.06
2023-03-17T09:55:43.881Z,19.25
2023-03-17T09:58:11.779Z,18.65
2023-03-17T10:00:39.612Z,18.41
2023-03-17T10:03:08.150Z,18.18
2023-03-17T10:05:36.298Z,19.13
2023-03-17T10:08:30.514Z,19.34
2023-03-17T10:11:23.545Z,17.80
2023-03-17T10:14:09.498Z,18.00
2023-03-17T10:16:46.858Z,18.32
2023-03-17T10:19:35.423Z,17.83
2023-03-17T10:22:14.218Z,18.21
2023-03-17T10:24:45.031Z,17.88
2023-03-17T10:27:15.322Z,18.39
2023-03-17T10:29:42.142Z,18.39
2023-03-17T10:32:12.431Z,18.02
2023-03-17T10:34:41.502Z,18.17
2023-03-17T10:37:09.601Z,17.72
2023-03-17T10:39:44.888Z,17.80
2023-03-17T10:42:20.705Z,16.48
2023-03-17T10:44:59.402Z,16.52
2023-03-17T10:47:31.724Z,16.79
2023-03-17T10:50:05.613Z,16.54
2023-03-17T10:52:37.140Z,16.38
2023-03-17T10:55:07.448Z,15.69
2023-03-17T10:57:37.446Z,16.09
2023-03-17T11:00:16.889Z,17.23
2023-03-17T11:02:48.167Z,17.19
2023-03-17T11:05:27.578Z,18.10
2023-03-17T11:08:12.001Z,16.49
2023-03-17T11:10:42.002Z,16.74
2023-03-17T11:13:10.276Z,16.69
2023-03-17T11:15:46.783Z,15.86
2023-03-17T11:18:22.963Z,14.98
2023-03-17T11:20:58.650Z,14.45
2023-03-17T11:23:51.059Z,14.43
2023-03-17T11:26:41.383Z,14.48
2023-03-17T11:29:21.028Z,14.14
2023-03-17T11:31:54.384Z,14.25
2023-03-17T11:34:47.716Z,13.51
2023-03-17T11:37:42.142Z,13.61
2023-03-17T11:40:29.985Z,14.56
2023-03-17T11:43:04.148Z,13.94
2023-03-17T11:46:09.069Z,14.51
2023-03-17T11:48:44.818Z,13.37
2023-03-17T11:51:27.571Z,13.20
2023-03-17T11:53:58.776Z,12.73
2023-03-17T11:56:44.111Z,12.83
2023-03-17T11:59:36.173Z,12.33
2023-03-17T12:02:11.217Z,11.22
2023-03-17T12:04:46.926Z,10.57
2023-03-17T12:07:18.446Z,10.72
2023-03-17T12:09:50.103Z,11.08
2023-03-17T12:12:27.051Z,11.13
2023-03-17T12:14:54.352Z,11.50
2023-03-17T12:17:31.774Z,12.30
2023-03-17T12:20:09.650Z,13.34
2023-03-17T12:22:55.909Z,13.80
2023-03-17T12:25:59.351Z,12.33
2023-03-17T12:28:31.161Z,12.75
2023-03-17T12:31:07.530Z,12.55
2023-03-17T12:33:44.819Z,13.30
2023-03-17T12:36:14.853Z,12.45
2023-03-17T12:38:45.404Z,12.22
2023-03-17T12:41:28.909Z,11.27
2023-03-17T12:44:07.924Z,10.83
2023-03-17T12:47:00.967Z,11.05
2023-03-17T12:50:02.525Z,11.07
2023-03-17T12:52:48.083Z,11.25
2023-03-17T12:55:17.338Z,11.90
2023-03-17T12:57:47.294Z,12.41
2023-03-17T13:00:25.255Z,12.35
2023-03-17T13:03:08.481Z,12.15
2023-03-17T13:05:37.339Z,12.54
2023-03-17T13:08:07.629Z,12.66
2023-03-17T13:10:40.854Z,11.87
2023-03-17T13:13:12.062Z,11.43
2023-03-17T13:15:39.722Z,11.25
2023-03-17T13:18:12.248Z,11.74
2023-03-17T13:20:44.855Z,12.51
2023-03-17T13:23:11.543Z,11.64
2023-03-17T13:25:38.334Z,11.25
2023-03-17T13:28:13.825Z,12.48
2023-03-17T13:30:40.475Z,11.30
2023-03-17T13:33:10.244Z,10.80
2023-03-17T13:35:41.970Z,10.04
2023-03-17T13:38:39.369Z,10.25
2023-03-17T13:41:44.459Z,10.54
2023-03-17T13:44:38.515Z,11.38
2023-03-17T13:47:42.166Z,11.15
2023-03-17T13:50:18.298Z,10.83
2023-03-17T13:53:03.845Z,10.58
2023-03-17T13:55:38.080Z,11.02
2023-03-17T13:58:10.934Z,10.73
2023-03-17T14:00:51.871Z,10.22
2023-03-17T14:03:41.312Z,10.15
2023-03-17T14:06:09.347Z,10.01
2023-03-17T14:08:38.649Z,10.34
2023-03-17T14:11:36.664Z,11.17
2023-03-17T14:14:32.533Z,10.75
2023-03-17T14:17:15.390Z,11.15
2023-03-17T14:19:59.784Z,10.25
2023-03-17T14:22:26.807Z,10.19
2023-03-17T14:24:55.478Z,10.13
2023-03-17T14:27:24.643Z,9.95
2023-03-17T14:29:52.414Z,9.30
2023-03-17T14:32:21.610Z,8.80
2023-03-17T14:34:55.544Z,9.15
2023-03-17T14:37:23.123Z,9.51
2023-03-17T14:39:55.194Z,9.53
2023-03-17T14:42:27.825Z,10.28
2023-03-17T14:45:07.301Z,10.39
2023-03-17T14:47:42.716Z,10.26
2023-03-17T14:50:27.739Z,10.25
2023-03-17T14:52:55.304Z,10.80
2023-03-17T14:55:22.384Z,10.25
2023-03-17T14:57:51.497Z,10.55
2023-03-17T15:00:33.971Z,10.44
2023-03-17T15:03:05.325Z,10.69
2023-03-17T15:05:41.339Z,10.24
2023-03-17T15:08:36.589Z,10.90
2023-03-17T15:11:04.887Z,10.90
2023-03-17T15:13:35.121Z,11.89
2023-03-17T15:16:21.721Z,10.85
2023-03-17T15:18:50.893Z,11.33
2023-03-17T15:21:48.632Z,12.19
2023-03-17T15:24:39.302Z,11.29
2023-03-17T15:27:15.656Z,11.52
2023-03-17T15:29:42.558Z,12.17
2023-03-17T15:32:20.330Z,12.44
2023-03-17T15:34:51.487Z,13.10
2023-03-17T15:37:19.280Z,14.27
2023-03-17T15:39:47.034Z,14.06
2023-03-17T15:42:14.419Z,16.15
2023-03-17T15:44:41.196Z,16.46
2023-03-17T15:47:08.553Z,19.44
2023-03-17T15:49:35.244Z,20.14
2023-03-17T15:52:02.010Z,21.86
2023-03-17T15:54:28.727Z,23.08
2023-03-17T15:56:55.752Z,23.67
2023-03-17T15:59:22.458Z,25.10
2023-03-17T16:01:49.282Z,24.12
2023-03-17T16:04:17.898Z,25.23
2023-03-17T16:06:44.753Z,26.04
2023-03-17T16:09:15.789Z,27.22
2023-03-17T16:11:42.519Z,27.78
2023-03-17T16:14:10.225Z,27.72
2023-03-17T16:16:39.323Z,27.92
2023-03-17T16:19:06.701Z,28.61
2023-03-17T16:21:33.494Z,28.75
2023-03-17T16:24:00.448Z,28.32
2023-03-17T16:26:27.209Z,28.80
2023-03-17T16:28:54.028Z,28.00
2023-03-17T16:31:31.565Z,30.61
2023-03-17T16:33:58.372Z,31.80
2023-03-17T16:36:25.576Z,30.29
2023-03-17T16:38:52.852Z,32.05
2023-03-17T16:41:27.466Z,31.84
2023-03-17T16:43:59.312Z,32.40
2023-03-17T16:46:26.958Z,33.04
2023-03-17T16:48:53.859Z,32.14
2023-03-17T16:51:20.673Z,35.46
2023-03-17T16:53:47.383Z,32.88
2023-03-17T16:56:17.282Z,33.32
2023-03-17T16:58:45.052Z,35.03
2023-03-17T17:01:19.143Z,34.74
2023-03-17T17:03:46.464Z,35.61
2023-03-17T17:06:14.449Z,35.18
2023-03-17T17:08:45.257Z,36.83
2023-03-17T17:11:13.266Z,36.39
2023-03-17T17:13:41.349Z,37.37
2023-03-17T17:16:16.367Z,38.11
2023-03-17T17:18:43.164Z,39.67
2023-03-17T17:21:09.886Z,39.27
2023-03-17T17:23:36.597Z,39.17
2023-03-17T17:26:03.282Z,39.81
2023-03-17T17:28:30.042Z,40.88
2023-03-17T17:30:58.498Z,40.10
2023-03-17T17:33:25.907Z,39.95
2023-03-17T17:35:53.096Z,41.36
2023-03-17T17:38:28.885Z,41.31
2023-03-17T17:40:57.914Z,41.10
2023-03-17T17:43:25.137Z,41.47
2023-03-17T17:45:52.535Z,42.28
2023-03-17T17:48:22.576Z,41.70
2023-03-17T17:50:50.652Z,43.31
2023-03-17T17:53:18.095Z,43.20
2023-03-17T17:55:46.960Z,42.61
2023-03-17T17:58:16.316Z,42.36
2023-03-17T18:00:43.370Z,43.20
2023-03-17T18:03:10.146Z,43.37
2023-03-17T18:05:37.302Z,43.31
2023-03-17T18:08:04.660Z,44.05
2023-03-17T18:10:32.394Z,44.54
2023-03-17T18:12:59.522Z,43.33
2023-03-17T18:15:27.397Z,43.72
2023-03-17T18:17:54.510Z,44.17
2023-03-17T18:20:22.544Z,44.78
2023-03-17T18:22:50.271Z,44.37
2023-03-17T18:25:17.852Z,45.25
2023-03-17T18:27:44.738Z,45.19
2023-03-17T18:30:14.382Z,45.23
2023-03-17T18:32:42.937Z,45.53
2023-03-17T18:35:13.004Z,45.19
2023-03-17T18:37:39.812Z,45.35
2023-03-17T18:40:14.249Z,45.93
2023-03-17T18:42:41.503Z,45.89
2023-03-17T18:45:09.910Z,45.73
2023-03-17T18:47:38.806Z,46.87
2023-03-17T18:50:07.062Z,47.01
2023-03-17T18:52:35.109Z,46.17
2023-03-17T18:55:02.068Z,46.75
2023-03-17T18:57:28.826Z,47.35
2023-03-17T18:59:55.902Z,47.10
2023-03-17T19:02:22.779Z,47.77
2023-03-17T19:04:49.645Z,47.72
2023-03-17T19:07:17.880Z,47.68
2023-03-17T19:09:44.927Z,48.31
2023-03-17T19:12:12.190Z,48.37
2023-03-17T19:14:39.863Z,47.44
2023-03-17T19:17:07.452Z,48.30
2023-03-17T19:19:35.406Z,48.32
2023-03-17T19:22:03.801Z,47.76
2023-03-17T19:24:32.156Z,48.70
2023-03-17T19:26:58.938Z,48.33
2023-03-17T19:29:27.677Z,48.98
2023-03-17T19:31:54.364Z,49.67
2023-03-17T19:34:21.311Z,48.34
2023-03-17T19:36:48.225Z,49.63
2023-03-17T19:39:15.400Z,50.23
2023-03-17T19:41:42.246Z,50.21
2023-03-17T19:44:09.004Z,50.37
2023-03-17T19:46:37.004Z,50.66
2023-03-17T19:49:04.816Z,50.87
2023-03-17T19:51:32.881Z,51.79
2023-03-17T19:54:00.205Z,51.08
2023-03-17T19:56:27.957Z,50.98
2023-03-17T19:58:55.462Z,51.49
2023-03-17T20:01:22.972Z,51.40
2023-03-17T20:03:50.025Z,51.50
2023-03-17T20:06:16.972Z,51.74
2023-03-17T20:08:44.484Z,51.84
2023-03-17T20:11:12.422Z,51.89
2023-03-17T20:13:39.483Z,52.34
2023-03-17T20:16:07.089Z,51.93
2023-03-17T20:18:34.306Z,51.72
2023-03-17T20:21:05.175Z,51.60
2023-03-17T20:23:32.135Z,51.47
2023-03-17T20:25:58.902Z,52.43
2023-03-17T20:28:25.623Z,52.47
2023-03-17T20:30:52.496Z,52.28
2023-03-17T20:33:19.392Z,52.60
2023-03-17T20:35:47.364Z,52.87
2023-03-17T20:38:14.864Z,52.39
2023-03-17T20:40:42.497Z,53.04
2023-03-17T20:43:09.502Z,52.65
2023-03-17T20:45:37.070Z,53.51
2023-03-17T20:48:06.083Z,52.95
2023-03-17T20:50:34.428Z,52.84
2023-03-17T20:53:01.740Z,53.79
2023-03-17T20:55:30.066Z,52.49
2023-03-17T20:57:58.740Z,51.34
2023-03-17T21:00:26.230Z,52.80
2023-03-17T21:02:53.214Z,50.45
2023-03-17T21:05:23.206Z,49.23
2023-03-17T21:07:50.121Z,51.03
2023-03-17T21:10:17.409Z,51.69
2023-03-17T21:12:44.308Z,51.13
2023-03-17T21:15:12.904Z,51.07
2023-03-17T21:17:40.241Z,51.28
2023-03-17T21:20:09.557Z,51.67
2023-03-17T21:22:36.879Z,51.25
2023-03-17T21:25:04.653Z,51.60
2023-03-17T21:27:31.381Z,51.30
2023-03-17T21:29:58.086Z,51.54
2023-03-17T21:32:25.038Z,51.76
2023-03-17T21:34:52.012Z,51.65
2023-03-17T21:37:18.823Z,50.90
2023-03-17T21:39:45.895Z,52.37
2023-03-17T21:42:12.630Z,50.69
2023-03-17T21:44:39.788Z,51.00
2023-03-17T21:47:07.652Z,51.24
2023-03-17T21:49:34.430Z,53.61
2023-03-17T21:52:01.301Z,53.74
2023-03-17T21:54:28.518Z,52.59
2023-03-17T21:56:55.280Z,52.09
2023-03-17T21:59:22.078Z,52.85
2023-03-17T22:01:52.117Z,52.89
2023-03-17T22:04:19.170Z,52.66
2023-03-17T22:06:45.946Z,52.54
2023-03-17T22:09:13.052Z,52.00
2023-03-17T22:11:39.762Z,53.22
2023-03-17T22:14:06.593Z,52.79
2023-03-17T22:16:33.752Z,52.57
2023-03-17T22:19:00.532Z,52.13
2023-03-17T22:21:28.775Z,53.62
2023-03-17T22:23:55.646Z,53.22
2023-03-17T22:26:22.983Z,51.61
2023-03-17T22:28:50.352Z,54.52
2023-03-17T22:31:24.528Z,53.30
2023-03-17T22:33:54.176Z,53.20
2023-03-17T22:36:21.438Z,53.02
2023-03-17T22:38:48.309Z,53.78
2023-03-17T22:41:17.954Z,51.97
2023-03-17T22:43:45.062Z,53.70
2023-03-17T22:46:11.944Z,53.45
2023-03-17T22:48:40.129Z,52.48
2023-03-17T22:51:10.629Z,54.43
2023-03-17T22:53:38.276Z,52.25
2023-03-17T22:56:06.078Z,53.35
2023-03-17T22:58:32.773Z,53.73
2023-03-17T23:00:59.953Z,53.68
2023-03-17T23:03:27.618Z,53.75
2023-03-17T23:05:57.410Z,53.41
2023-03-17T23:08:25.124Z,54.29
2023-03-17T23:10:51.937Z,53.86
2023-03-17T23:13:20.054Z,54.23
2023-03-17T23:15:47.495Z,55.38
2023-03-17T23:18:14.622Z,55.04
2023-03-17T23:20:41.967Z,56.14
2023-03-17T23:23:09.201Z,55.58
2023-03-17T23:25:36.617Z,54.72
2023-03-17T23:28:04.062Z,55.24
2023-03-17T23:30:31.640Z,55.96
2023-03-17T23:32:58.805Z,55.70
2023-03-17T23:35:25.877Z,55.82
2023-03-17T23:37:52.587Z,55.92
2023-03-17T23:40:19.450Z,56.10
2023-03-17T23:42:50.217Z,55.89
2023-03-17T23:45:18.094Z,55.78
2023-03-17T23:47:46.668Z,56.20
2023-03-17T23:50:14.556Z,56.01
2023-03-17T23:52:42.498Z,55.49
2023-03-17T23:55:11.834Z,56.65
2023-03-17T23:57:39.105Z,56.99
